sensor_id;sensor_type;location;lat;lon;timestamp;pressure;altitude;pressure_sealevel;temperature;humidity
70468;BME280;57934;51.532;7.684;2023-05-24T00:02:25;101090.47;;;8.55;nan
70468;BME280;57934;51.532;7.684;2023-05-24T00:04:52;101099.03;;;8.57;nan
70468;BME280;57934;51.532;7.684;2023-05-24T00:07:18;101103.66;;;8.64;nan
70468;BME280;57934;51.532;7.684;2023-05-24T00:09:44;101096.22;;;8.59;nan
70468;BME280;57934;51.532;7.684;2023-05-24T00:12:10;101103.47;;;8.57;nan
70468;BME280;57934;51.532;7.684;2023-05-24T00:14:36;101092.59;;;8.52;nan
70468;BME280;57934;51.532;7.684;2023-05-24T00:17:02;101102.09;;;8.53;nan
70468;BME280;57934;51.532;7.684;2023-05-24T00:19:28;101100.84;;;8.57;nan
70468;BME280;57934;51.532;7.684;2023-05-24T00:21:54;101098.84;;;8.59;nan
70468;BME280;57934;51.532;7.684;2023-05-24T00:24:20;101099.66;;;8.51;nan
70468;BME280;57934;51.532;7.684;2023-05-24T00:26:46;101091.56;;;8.45;nan
70468;BME280;57934;51.532;7.684;2023-05-24T00:29:13;101093.69;;;8.41;nan
70468;BME280;57934;51.532;7.684;2023-05-24T00:31:39;101095.69;;;8.39;nan
70468;BME280;57934;51.532;7.684;2023-05-24T00:34:05;101096.84;;;8.45;nan
70468;BME280;57934;51.532;7.684;2023-05-24T00:36:31;101092.00;;;8.32;nan
70468;BME280;57934;51.532;7.684;2023-05-24T00:38:57;101080.63;;;8.23;nan
70468;BME280;57934;51.532;7.684;2023-05-24T00:41:24;101087.84;;;8.21;nan
70468;BME280;57934;51.532;7.684;2023-05-24T00:43:51;101086.16;;;8.12;nan
70468;BME280;57934;51.532;7.684;2023-05-24T00:46:20;101084.34;;;8.04;nan
70468;BME280;57934;51.532;7.684;2023-05-24T00:48:50;101081.03;;;8.02;nan
70468;BME280;57934;51.532;7.684;2023-05-24T00:51:16;101083.97;;;7.99;nan
70468;BME280;57934;51.532;7.684;2023-05-24T00:53:45;101083.94;;;7.91;nan
70468;BME280;57934;51.532;7.684;2023-05-24T00:56:12;101079.66;;;7.90;nan
70468;BME280;57934;51.532;7.684;2023-05-24T00:58:39;101078.00;;;7.89;nan
70468;BME280;57934;51.532;7.684;2023-05-24T01:01:06;101080.06;;;7.77;nan
70468;BME280;57934;51.532;7.684;2023-05-24T01:03:33;101075.28;;;7.73;nan
70468;BME280;57934;51.532;7.684;2023-05-24T01:06:02;101076.41;;;7.70;nan
70468;BME280;57934;51.532;7.684;2023-05-24T01:14:13;101093.28;;;7.68;nan
70468;BME280;57934;51.532;7.684;2023-05-24T01:16:55;101095.31;;;7.74;nan
70468;BME280;57934;51.532;7.684;2023-05-24T01:19:53;101095.63;;;7.71;nan
70468;BME280;57934;51.532;7.684;2023-05-24T01:22:45;101087.31;;;7.57;nan
70468;BME280;57934;51.532;7.684;2023-05-24T01:28:21;101071.34;;;7.51;nan
70468;BME280;57934;51.532;7.684;2023-05-24T01:30:47;101072.34;;;7.50;nan
70468;BME280;57934;51.532;7.684;2023-05-24T01:33:13;101060.88;;;7.51;nan
70468;BME280;57934;51.532;7.684;2023-05-24T01:35:40;101055.28;;;7.46;nan
70468;BME280;57934;51.532;7.684;2023-05-24T01:38:08;101054.38;;;7.37;nan
70468;BME280;57934;51.532;7.684;2023-05-24T01:40:36;101049.06;;;7.29;nan
70468;BME280;57934;51.532;7.684;2023-05-24T01:43:11;101042.41;;;7.34;nan
70468;BME280;57934;51.532;7.684;2023-05-24T01:45:45;101047.44;;;7.28;nan
70468;BME280;57934;51.532;7.684;2023-05-24T01:51:06;101050.53;;;7.23;nan
70468;BME280;57934;51.532;7.684;2023-05-24T01:53:33;101045.13;;;7.25;nan
70468;BME280;57934;51.532;7.684;2023-05-24T01:56:02;101045.59;;;7.20;nan
70468;BME280;57934;51.532;7.684;2023-05-24T01:58:31;101050.59;;;7.13;nan
70468;BME280;57934;51.532;7.684;2023-05-24T02:00:58;101040.78;;;7.15;nan
70468;BME280;57934;51.532;7.684;2023-05-24T02:03:25;101034.56;;;7.16;nan
70468;BME280;57934;51.532;7.684;2023-05-24T02:05:51;101044.59;;;7.21;nan
70468;BME280;57934;51.532;7.684;2023-05-24T02:08:17;101042.78;;;7.22;nan
70468;BME280;57934;51.532;7.684;2023-05-24T02:10:44;101041.28;;;7.19;nan
70468;BME280;57934;51.532;7.684;2023-05-24T02:13:10;101036.22;;;7.17;nan
70468;BME280;57934;51.532;7.684;2023-05-24T02:15:36;101028.28;;;7.09;nan
70468;BME280;57934;51.532;7.684;2023-05-24T02:18:03;101036.88;;;7.02;nan
70468;BME280;57934;51.532;7.684;2023-05-24T02:20:30;101027.78;;;7.06;nan
70468;BME280;57934;51.532;7.684;2023-05-24T02:22:56;101030.22;;;7.07;nan
70468;BME280;57934;51.532;7.684;2023-05-24T02:25:25;101030.38;;;7.06;nan
70468;BME280;57934;51.532;7.684;2023-05-24T02:27:51;101027.38;;;7.01;nan
70468;BME280;57934;51.532;7.684;2023-05-24T02:30:17;101033.16;;;7.04;nan
70468;BME280;57934;51.532;7.684;2023-05-24T02:32:43;101033.63;;;7.00;nan
70468;BME280;57934;51.532;7.684;2023-05-24T02:35:09;101031.59;;;6.93;nan
70468;BME280;57934;51.532;7.684;2023-05-24T02:37:35;101027.91;;;6.86;nan
70468;BME280;57934;51.532;7.684;2023-05-24T02:40:01;101027.16;;;6.94;nan
70468;BME280;57934;51.532;7.684;2023-05-24T02:42:27;101028.97;;;6.93;nan
70468;BME280;57934;51.532;7.684;2023-05-24T02:44:53;101033.47;;;6.83;nan
70468;BME280;57934;51.532;7.684;2023-05-24T02:47:19;101025.38;;;6.77;nan
70468;BME280;57934;51.532;7.684;2023-05-24T02:49:45;101025.53;;;6.75;nan
70468;BME280;57934;51.532;7.684;2023-05-24T02:52:11;101025.81;;;6.72;nan
70468;BME280;57934;51.532;7.684;2023-05-24T02:54:38;101027.63;;;6.72;nan
70468;BME280;57934;51.532;7.684;2023-05-24T02:57:04;101025.53;;;6.75;nan
70468;BME280;57934;51.532;7.684;2023-05-24T02:59:34;101028.91;;;6.67;nan
70468;BME280;57934;51.532;7.684;2023-05-24T03:02:00;101025.16;;;6.70;nan
70468;BME280;57934;51.532;7.684;2023-05-24T03:04:27;101023.38;;;6.71;nan
70468;BME280;57934;51.532;7.684;2023-05-24T03:06:53;101033.00;;;6.70;nan
70468;BME280;57934;51.532;7.684;2023-05-24T03:09:20;101031.38;;;6.69;nan
70468;BME280;57934;51.532;7.684;2023-05-24T03:11:46;101031.22;;;6.71;nan
70468;BME280;57934;51.532;7.684;2023-05-24T03:14:12;101033.84;;;6.71;nan
70468;BME280;57934;51.532;7.684;2023-05-24T03:16:41;101030.09;;;6.73;nan
70468;BME280;57934;51.532;7.684;2023-05-24T03:19:07;101027.94;;;6.68;nan
70468;BME280;57934;51.532;7.684;2023-05-24T03:21:33;101024.41;;;6.78;nan
70468;BME280;57934;51.532;7.684;2023-05-24T03:23:59;101033.22;;;6.77;nan
70468;BME280;57934;51.532;7.684;2023-05-24T03:26:25;101025.38;;;6.77;nan
70468;BME280;57934;51.532;7.684;2023-05-24T03:28:51;101026.00;;;6.71;nan
70468;BME280;57934;51.532;7.684;2023-05-24T03:31:20;101032.72;;;6.73;nan
70468;BME280;57934;51.532;7.684;2023-05-24T03:33:49;101036.31;;;6.72;nan
70468;BME280;57934;51.532;7.684;2023-05-24T03:36:16;101032.88;;;6.72;nan
70468;BME280;57934;51.532;7.684;2023-05-24T03:38:43;101039.91;;;6.71;nan
70468;BME280;57934;51.532;7.684;2023-05-24T03:41:09;101046.78;;;6.72;nan
70468;BME280;57934;51.532;7.684;2023-05-24T03:43:35;101035.34;;;6.73;nan
70468;BME280;57934;51.532;7.684;2023-05-24T03:46:04;101031.88;;;6.73;nan
70468;BME280;57934;51.532;7.684;2023-05-24T03:48:30;101033.53;;;6.74;nan
70468;BME280;57934;51.532;7.684;2023-05-24T03:50:57;101043.19;;;6.73;nan
70468;BME280;57934;51.532;7.684;2023-05-24T03:53:24;101040.44;;;6.75;nan
70468;BME280;57934;51.532;7.684;2023-05-24T03:55:50;101043.41;;;6.80;nan
70468;BME280;57934;51.532;7.684;2023-05-24T03:58:16;101051.34;;;6.88;nan
70468;BME280;57934;51.532;7.684;2023-05-24T04:00:43;101051.28;;;6.80;nan
70468;BME280;57934;51.532;7.684;2023-05-24T04:03:09;101055.63;;;6.89;nan
70468;BME280;57934;51.532;7.684;2023-05-24T04:05:38;101055.72;;;6.97;nan
70468;BME280;57934;51.532;7.684;2023-05-24T04:08:04;101061.94;;;6.96;nan
70468;BME280;57934;51.532;7.684;2023-05-24T04:10:31;101055.75;;;7.05;nan
70468;BME280;57934;51.532;7.684;2023-05-24T04:12:57;101059.59;;;7.11;nan
70468;BME280;57934;51.532;7.684;2023-05-24T04:15:23;101059.34;;;7.22;nan
70468;BME280;57934;51.532;7.684;2023-05-24T04:17:49;101060.50;;;7.20;nan
70468;BME280;57934;51.532;7.684;2023-05-24T04:20:21;101069.59;;;7.33;nan
70468;BME280;57934;51.532;7.684;2023-05-24T04:22:50;101072.16;;;7.25;nan
70468;BME280;57934;51.532;7.684;2023-05-24T04:25:16;101066.09;;;7.25;nan
70468;BME280;57934;51.532;7.684;2023-05-24T04:27:42;101071.78;;;7.38;nan
70468;BME280;57934;51.532;7.684;2023-05-24T04:30:10;101078.72;;;7.47;nan
70468;BME280;57934;51.532;7.684;2023-05-24T04:32:36;101075.50;;;7.53;nan
70468;BME280;57934;51.532;7.684;2023-05-24T04:35:03;101081.63;;;7.62;nan
70468;BME280;57934;51.532;7.684;2023-05-24T04:37:30;101083.47;;;7.70;nan
70468;BME280;57934;51.532;7.684;2023-05-24T04:39:57;101080.75;;;7.79;nan
70468;BME280;57934;51.532;7.684;2023-05-24T04:42:23;101079.31;;;7.93;nan
70468;BME280;57934;51.532;7.684;2023-05-24T04:44:49;101090.09;;;8.08;nan
70468;BME280;57934;51.532;7.684;2023-05-24T04:47:15;101090.81;;;8.26;nan
70468;BME280;57934;51.532;7.684;2023-05-24T04:49:42;101093.88;;;8.48;nan
70468;BME280;57934;51.532;7.684;2023-05-24T04:52:08;101086.69;;;8.58;nan
70468;BME280;57934;51.532;7.684;2023-05-24T04:54:34;101087.06;;;8.71;nan
70468;BME280;57934;51.532;7.684;2023-05-24T04:57:00;101087.25;;;8.78;nan
70468;BME280;57934;51.532;7.684;2023-05-24T04:59:25;101082.13;;;8.76;nan
70468;BME280;57934;51.532;7.684;2023-05-24T05:01:51;101084.94;;;8.83;nan
70468;BME280;57934;51.532;7.684;2023-05-24T05:04:17;101076.22;;;8.74;nan
70468;BME280;57934;51.532;7.684;2023-05-24T05:06:43;101077.16;;;8.57;nan
70468;BME280;57934;51.532;7.684;2023-05-24T05:09:09;101084.19;;;8.48;nan
70468;BME280;57934;51.532;7.684;2023-05-24T05:11:38;101076.31;;;8.48;nan
70468;BME280;57934;51.532;7.684;2023-05-24T05:14:04;101079.44;;;8.52;nan
70468;BME280;57934;51.532;7.684;2023-05-24T05:16:31;101075.69;;;8.63;nan
70468;BME280;57934;51.532;7.684;2023-05-24T05:18:57;101061.22;;;8.58;nan
70468;BME280;57934;51.532;7.684;2023-05-24T05:21:23;101067.13;;;8.52;nan
70468;BME280;57934;51.532;7.684;2023-05-24T05:23:49;101071.09;;;8.65;nan
70468;BME280;57934;51.532;7.684;2023-05-24T05:26:15;101071.13;;;8.73;nan
70468;BME280;57934;51.532;7.684;2023-05-24T05:28:41;101073.78;;;8.89;nan
70468;BME280;57934;51.532;7.684;2023-05-24T05:31:07;101079.34;;;8.94;nan
70468;BME280;57934;51.532;7.684;2023-05-24T05:33:33;101085.13;;;9.14;nan
70468;BME280;57934;51.532;7.684;2023-05-24T05:35:59;101092.38;;;9.37;nan
70468;BME280;57934;51.532;7.684;2023-05-24T05:38:25;101091.03;;;9.65;nan
70468;BME280;57934;51.532;7.684;2023-05-24T05:40:51;101078.00;;;9.80;nan
70468;BME280;57934;51.532;7.684;2023-05-24T05:43:17;101066.09;;;9.92;nan
70468;BME280;57934;51.532;7.684;2023-05-24T05:45:43;101064.72;;;10.13;nan
70468;BME280;57934;51.532;7.684;2023-05-24T05:48:09;101070.47;;;10.16;nan
70468;BME280;57934;51.532;7.684;2023-05-24T05:50:35;101069.47;;;10.17;nan
70468;BME280;57934;51.532;7.684;2023-05-24T05:53:01;101070.94;;;10.20;nan
70468;BME280;57934;51.532;7.684;2023-05-24T05:55:27;101078.09;;;10.11;nan
70468;BME280;57934;51.532;7.684;2023-05-24T05:57:53;101066.53;;;10.12;nan
70468;BME280;57934;51.532;7.684;2023-05-24T06:06:48;101065.66;;;10.59;nan
70468;BME280;57934;51.532;7.684;2023-05-24T06:09:15;101068.78;;;10.63;nan
70468;BME280;57934;51.532;7.684;2023-05-24T06:11:41;101074.38;;;10.68;nan
70468;BME280;57934;51.532;7.684;2023-05-24T06:14:10;101076.72;;;10.86;nan
70468;BME280;57934;51.532;7.684;2023-05-24T06:16:43;101082.91;;;10.70;nan
70468;BME280;57934;51.532;7.684;2023-05-24T06:19:13;101090.81;;;10.47;nan
70468;BME280;57934;51.532;7.684;2023-05-24T06:21:41;101085.81;;;10.52;nan
70468;BME280;57934;51.532;7.684;2023-05-24T06:24:13;101088.31;;;10.54;nan
70468;BME280;57934;51.532;7.684;2023-05-24T06:26:40;101087.16;;;10.48;nan
70468;BME280;57934;51.532;7.684;2023-05-24T06:29:06;101079.81;;;10.66;nan
70468;BME280;57934;51.532;7.684;2023-05-24T06:31:33;101080.38;;;10.85;nan
70468;BME280;57934;51.532;7.684;2023-05-24T06:33:59;101085.06;;;10.97;nan
70468;BME280;57934;51.532;7.684;2023-05-24T06:36:25;101086.81;;;11.28;nan
70468;BME280;57934;51.532;7.684;2023-05-24T06:38:51;101085.31;;;11.26;nan
70468;BME280;57934;51.532;7.684;2023-05-24T06:41:17;101082.56;;;11.57;nan
70468;BME280;57934;51.532;7.684;2023-05-24T06:43:43;101084.03;;;11.97;nan
70468;BME280;57934;51.532;7.684;2023-05-24T06:46:10;101084.63;;;12.14;nan
70468;BME280;57934;51.532;7.684;2023-05-24T06:48:36;101091.00;;;12.34;nan
70468;BME280;57934;51.532;7.684;2023-05-24T06:51:02;101087.63;;;12.40;nan
70468;BME280;57934;51.532;7.684;2023-05-24T06:53:28;101089.34;;;12.48;nan
70468;BME280;57934;51.532;7.684;2023-05-24T06:55:54;101083.88;;;12.50;nan
70468;BME280;57934;51.532;7.684;2023-05-24T06:58:20;101084.41;;;12.81;nan
70468;BME280;57934;51.532;7.684;2023-05-24T07:00:47;101079.69;;;12.98;nan
70468;BME280;57934;51.532;7.684;2023-05-24T07:03:14;101069.72;;;13.22;nan
70468;BME280;57934;51.532;7.684;2023-05-24T07:05:41;101078.31;;;13.02;nan
70468;BME280;57934;51.532;7.684;2023-05-24T07:08:07;101082.53;;;12.97;nan
70468;BME280;57934;51.532;7.684;2023-05-24T07:10:34;101075.03;;;12.43;nan
70468;BME280;57934;51.532;7.684;2023-05-24T07:13:00;101085.81;;;12.26;nan
70468;BME280;57934;51.532;7.684;2023-05-24T07:15:26;101098.13;;;12.34;nan
70468;BME280;57934;51.532;7.684;2023-05-24T07:17:52;101099.84;;;12.41;nan
70468;BME280;57934;51.532;7.684;2023-05-24T07:20:18;101106.47;;;12.52;nan
70468;BME280;57934;51.532;7.684;2023-05-24T07:22:44;101120.00;;;12.13;nan
70468;BME280;57934;51.532;7.684;2023-05-24T07:25:10;101116.25;;;12.37;nan
70468;BME280;57934;51.532;7.684;2023-05-24T07:27:36;101115.75;;;11.97;nan
70468;BME280;57934;51.532;7.684;2023-05-24T07:30:03;101117.19;;;12.00;nan
70468;BME280;57934;51.532;7.684;2023-05-24T07:32:29;101111.91;;;12.00;nan
70468;BME280;57934;51.532;7.684;2023-05-24T07:34:57;101096.22;;;12.43;nan
70468;BME280;57934;51.532;7.684;2023-05-24T07:37:23;101095.69;;;13.11;nan
70468;BME280;57934;51.532;7.684;2023-05-24T07:39:50;101101.88;;;12.97;nan
70468;BME280;57934;51.532;7.684;2023-05-24T07:42:16;101099.78;;;12.71;nan
70468;BME280;57934;51.532;7.684;2023-05-24T07:44:42;101105.94;;;12.57;nan
70468;BME280;57934;51.532;7.684;2023-05-24T07:47:08;101106.78;;;12.79;nan
70468;BME280;57934;51.532;7.684;2023-05-24T07:49:34;101102.44;;;12.93;nan
70468;BME280;57934;51.532;7.684;2023-05-24T07:52:00;101101.91;;;12.61;nan
70468;BME280;57934;51.532;7.684;2023-05-24T07:54:28;101102.06;;;12.59;nan
70468;BME280;57934;51.532;7.684;2023-05-24T07:56:54;101110.13;;;12.51;nan
70468;BME280;57934;51.532;7.684;2023-05-24T07:59:22;101101.03;;;12.24;nan
70468;BME280;57934;51.532;7.684;2023-05-24T08:01:48;101106.69;;;12.21;nan
70468;BME280;57934;51.532;7.684;2023-05-24T08:04:15;101101.94;;;12.46;nan
70468;BME280;57934;51.532;7.684;2023-05-24T08:06:41;101104.50;;;12.39;nan
70468;BME280;57934;51.532;7.684;2023-05-24T08:09:07;101102.47;;;12.41;nan
70468;BME280;57934;51.532;7.684;2023-05-24T08:11:33;101109.16;;;12.23;nan
70468;BME280;57934;51.532;7.684;2023-05-24T08:13:59;101110.16;;;12.07;nan
70468;BME280;57934;51.532;7.684;2023-05-24T08:20:14;101103.50;;;11.96;nan
70468;BME280;57934;51.532;7.684;2023-05-24T08:22:40;101109.13;;;11.78;nan
70468;BME280;57934;51.532;7.684;2023-05-24T08:25:07;101105.31;;;11.81;nan
70468;BME280;57934;51.532;7.684;2023-05-24T08:27:34;101104.16;;;12.13;nan
70468;BME280;57934;51.532;7.684;2023-05-24T08:30:00;101112.34;;;12.33;nan
70468;BME280;57934;51.532;7.684;2023-05-24T08:32:26;101114.81;;;12.05;nan
70468;BME280;57934;51.532;7.684;2023-05-24T08:34:52;101123.78;;;11.81;nan
70468;BME280;57934;51.532;7.684;2023-05-24T08:37:20;101118.41;;;11.74;nan
70468;BME280;57934;51.532;7.684;2023-05-24T08:39:47;101132.91;;;11.78;nan
70468;BME280;57934;51.532;7.684;2023-05-24T08:42:14;101132.50;;;12.19;nan
70468;BME280;57934;51.532;7.684;2023-05-24T08:44:57;101128.13;;;12.41;nan
70468;BME280;57934;51.532;7.684;2023-05-24T08:47:24;101125.56;;;12.84;nan
70468;BME280;57934;51.532;7.684;2023-05-24T08:49:51;101118.63;;;14.03;nan
70468;BME280;57934;51.532;7.684;2023-05-24T08:52:18;101108.03;;;15.59;nan
70468;BME280;57934;51.532;7.684;2023-05-24T08:54:45;101109.47;;;15.75;nan
70468;BME280;57934;51.532;7.684;2023-05-24T08:57:12;101109.56;;;16.27;nan
70468;BME280;57934;51.532;7.684;2023-05-24T08:59:40;101101.63;;;17.03;nan
70468;BME280;57934;51.532;7.684;2023-05-24T09:02:10;101096.91;;;17.74;nan
70468;BME280;57934;51.532;7.684;2023-05-24T09:04:38;101101.91;;;16.88;nan
70468;BME280;57934;51.532;7.684;2023-05-24T09:07:06;101106.56;;;16.03;nan
70468;BME280;57934;51.532;7.684;2023-05-24T09:09:33;101099.22;;;15.12;nan
70468;BME280;57934;51.532;7.684;2023-05-24T09:12:03;101095.13;;;14.96;nan
70468;BME280;57934;51.532;7.684;2023-05-24T09:14:29;101093.44;;;14.69;nan
70468;BME280;57934;51.532;7.684;2023-05-24T09:16:56;101093.81;;;13.76;nan
70468;BME280;57934;51.532;7.684;2023-05-24T09:19:22;101103.63;;;13.54;nan
70468;BME280;57934;51.532;7.684;2023-05-24T09:21:48;101101.81;;;12.90;nan
70468;BME280;57934;51.532;7.684;2023-05-24T09:24:15;101103.16;;;12.65;nan
70468;BME280;57934;51.532;7.684;2023-05-24T09:26:41;101111.03;;;12.58;nan
70468;BME280;57934;51.532;7.684;2023-05-24T09:29:07;101111.84;;;12.59;nan
70468;BME280;57934;51.532;7.684;2023-05-24T09:31:35;101107.00;;;12.62;nan
70468;BME280;57934;51.532;7.684;2023-05-24T09:34:02;101118.44;;;12.48;nan
70468;BME280;57934;51.532;7.684;2023-05-24T09:36:28;101120.25;;;12.48;nan
70468;BME280;57934;51.532;7.684;2023-05-24T09:39:05;101111.63;;;12.24;nan
70468;BME280;57934;51.532;7.684;2023-05-24T09:41:33;101113.00;;;12.05;nan
70468;BME280;57934;51.532;7.684;2023-05-24T09:44:00;101104.72;;;12.08;nan
70468;BME280;57934;51.532;7.684;2023-05-24T09:46:26;101109.78;;;12.39;nan
70468;BME280;57934;51.532;7.684;2023-05-24T09:48:57;101107.44;;;12.66;nan
70468;BME280;57934;51.532;7.684;2023-05-24T09:51:24;101098.47;;;13.46;nan
70468;BME280;57934;51.532;7.684;2023-05-24T09:53:55;101099.16;;;14.72;nan
70468;BME280;57934;51.532;7.684;2023-05-24T09:56:21;101101.06;;;15.12;nan
70468;BME280;57934;51.532;7.684;2023-05-24T09:58:48;101095.78;;;15.45;nan
70468;BME280;57934;51.532;7.684;2023-05-24T10:01:14;101094.78;;;15.72;nan
70468;BME280;57934;51.532;7.684;2023-05-24T10:03:55;101098.81;;;15.82;nan
70468;BME280;57934;51.532;7.684;2023-05-24T10:06:22;101096.78;;;15.44;nan
70468;BME280;57934;51.532;7.684;2023-05-24T10:08:51;101093.53;;;15.35;nan
70468;BME280;57934;51.532;7.684;2023-05-24T10:11:19;101095.56;;;15.33;nan
70468;BME280;57934;51.532;7.684;2023-05-24T10:13:47;101099.63;;;14.89;nan
70468;BME280;57934;51.532;7.684;2023-05-24T10:16:13;101103.66;;;14.72;nan
70468;BME280;57934;51.532;7.684;2023-05-24T10:18:39;101103.13;;;14.48;nan
70468;BME280;57934;51.532;7.684;2023-05-24T10:21:06;101105.03;;;14.13;nan
70468;BME280;57934;51.532;7.684;2023-05-24T10:23:36;101111.72;;;13.46;nan
70468;BME280;57934;51.532;7.684;2023-05-24T10:26:04;101116.56;;;13.21;nan
70468;BME280;57934;51.532;7.684;2023-05-24T10:28:33;101111.72;;;13.03;nan
70468;BME280;57934;51.532;7.684;2023-05-24T10:31:06;101119.72;;;12.88;nan
70468;BME280;57934;51.532;7.684;2023-05-24T10:33:35;101120.63;;;12.81;nan
70468;BME280;57934;51.532;7.684;2023-05-24T10:36:09;101122.22;;;12.75;nan
70468;BME280;57934;51.532;7.684;2023-05-24T10:38:37;101114.56;;;12.65;nan
70468;BME280;57934;51.532;7.684;2023-05-24T10:41:07;101116.03;;;12.68;nan
70468;BME280;57934;51.532;7.684;2023-05-24T10:43:36;101115.66;;;12.56;nan
70468;BME280;57934;51.532;7.684;2023-05-24T10:46:03;101116.97;;;12.60;nan
70468;BME280;57934;51.532;7.684;2023-05-24T10:48:37;101113.28;;;12.98;nan
70468;BME280;57934;51.532;7.684;2023-05-24T10:53:56;101103.03;;;14.28;nan
70468;BME280;57934;51.532;7.684;2023-05-24T10:56:22;101102.06;;;14.91;nan
70468;BME280;57934;51.532;7.684;2023-05-24T11:01:27;101104.56;;;15.45;nan
70468;BME280;57934;51.532;7.684;2023-05-24T11:04:15;101098.97;;;16.00;nan
70468;BME280;57934;51.532;7.684;2023-05-24T11:06:46;101091.56;;;16.22;nan
70468;BME280;57934;51.532;7.684;2023-05-24T11:09:16;101096.28;;;16.13;nan
70468;BME280;57934;51.532;7.684;2023-05-24T11:11:45;101096.03;;;16.28;nan
70468;BME280;57934;51.532;7.684;2023-05-24T11:14:13;101098.84;;;15.55;nan
70468;BME280;57934;51.532;7.684;2023-05-24T11:16:44;101100.47;;;15.43;nan
70468;BME280;57934;51.532;7.684;2023-05-24T11:19:13;101098.09;;;14.53;nan
70468;BME280;57934;51.532;7.684;2023-05-24T11:21:43;101099.94;;;14.12;nan
70468;BME280;57934;51.532;7.684;2023-05-24T11:24:09;101101.72;;;14.04;nan
70468;BME280;57934;51.532;7.684;2023-05-24T11:26:36;101105.84;;;14.14;nan
70468;BME280;57934;51.532;7.684;2023-05-24T11:29:03;101103.38;;;14.12;nan
70468;BME280;57934;51.532;7.684;2023-05-24T11:31:30;101100.00;;;13.90;nan
70468;BME280;57934;51.532;7.684;2023-05-24T11:33:56;101097.84;;;13.72;nan
70468;BME280;57934;51.532;7.684;2023-05-24T11:36:22;101102.78;;;13.82;nan
70468;BME280;57934;51.532;7.684;2023-05-24T11:38:48;101101.81;;;13.83;nan
70468;BME280;57934;51.532;7.684;2023-05-24T11:41:16;101103.53;;;13.69;nan
70468;BME280;57934;51.532;7.684;2023-05-24T11:43:43;101096.28;;;13.84;nan
70468;BME280;57934;51.532;7.684;2023-05-24T11:46:09;101099.47;;;14.01;nan
70468;BME280;57934;51.532;7.684;2023-05-24T11:48:36;101095.16;;;14.00;nan
70468;BME280;57934;51.532;7.684;2023-05-24T11:51:03;101095.28;;;13.57;nan
70468;BME280;57934;51.532;7.684;2023-05-24T11:53:30;101100.00;;;13.34;nan
70468;BME280;57934;51.532;7.684;2023-05-24T11:55:56;101107.25;;;13.25;nan
70468;BME280;57934;51.532;7.684;2023-05-24T11:58:24;101104.91;;;13.37;nan
70468;BME280;57934;51.532;7.684;2023-05-24T12:00:51;101102.69;;;13.19;nan
70468;BME280;57934;51.532;7.684;2023-05-24T12:03:17;101101.59;;;13.28;nan
70468;BME280;57934;51.532;7.684;2023-05-24T12:05:44;101101.22;;;13.31;nan
70468;BME280;57934;51.532;7.684;2023-05-24T12:08:11;101104.91;;;13.16;nan
70468;BME280;57934;51.532;7.684;2023-05-24T12:10:39;101098.78;;;13.36;nan
70468;BME280;57934;51.532;7.684;2023-05-24T12:13:18;101099.44;;;13.39;nan
70468;BME280;57934;51.532;7.684;2023-05-24T12:15:44;101104.66;;;13.32;nan
70468;BME280;57934;51.532;7.684;2023-05-24T12:18:21;101102.03;;;13.32;nan
70468;BME280;57934;51.532;7.684;2023-05-24T12:20:47;101100.41;;;13.31;nan
70468;BME280;57934;51.532;7.684;2023-05-24T12:23:14;101107.38;;;13.39;nan
70468;BME280;57934;51.532;7.684;2023-05-24T12:25:41;101100.47;;;13.44;nan
70468;BME280;57934;51.532;7.684;2023-05-24T12:28:09;101104.69;;;13.60;nan
70468;BME280;57934;51.532;7.684;2023-05-24T12:30:36;101104.84;;;13.80;nan
70468;BME280;57934;51.532;7.684;2023-05-24T12:33:02;101106.22;;;13.76;nan
70468;BME280;57934;51.532;7.684;2023-05-24T12:35:28;101097.16;;;13.92;nan
70468;BME280;57934;51.532;7.684;2023-05-24T12:37:58;101111.78;;;13.81;nan
70468;BME280;57934;51.532;7.684;2023-05-24T12:40:24;101107.50;;;13.80;nan
70468;BME280;57934;51.532;7.684;2023-05-24T12:42:55;101109.31;;;13.79;nan
70468;BME280;57934;51.532;7.684;2023-05-24T12:45:23;101107.81;;;13.98;nan
70468;BME280;57934;51.532;7.684;2023-05-24T12:47:51;101113.41;;;14.17;nan
70468;BME280;57934;51.532;7.684;2023-05-24T12:50:18;101112.59;;;14.16;nan
70468;BME280;57934;51.532;7.684;2023-05-24T12:52:46;101110.38;;;14.20;nan
70468;BME280;57934;51.532;7.684;2023-05-24T12:55:13;101112.25;;;14.26;nan
70468;BME280;57934;51.532;7.684;2023-05-24T12:57:41;101109.94;;;13.53;nan
70468;BME280;57934;51.532;7.684;2023-05-24T13:00:08;101110.03;;;13.67;nan
70468;BME280;57934;51.532;7.684;2023-05-24T13:02:38;101108.47;;;14.14;nan
70468;BME280;57934;51.532;7.684;2023-05-24T13:05:06;101115.84;;;14.12;nan
70468;BME280;57934;51.532;7.684;2023-05-24T13:07:32;101119.31;;;14.12;nan
70468;BME280;57934;51.532;7.684;2023-05-24T13:09:58;101109.72;;;14.11;nan
70468;BME280;57934;51.532;7.684;2023-05-24T13:12:25;101127.91;;;14.21;nan
70468;BME280;57934;51.532;7.684;2023-05-24T13:14:52;101111.59;;;14.24;nan
70468;BME280;57934;51.532;7.684;2023-05-24T13:17:18;101109.97;;;14.23;nan
70468;BME280;57934;51.532;7.684;2023-05-24T13:19:45;101114.38;;;14.09;nan
70468;BME280;57934;51.532;7.684;2023-05-24T13:22:12;101107.16;;;14.31;nan
70468;BME280;57934;51.532;7.684;2023-05-24T13:24:38;101101.16;;;14.57;nan
70468;BME280;57934;51.532;7.684;2023-05-24T13:27:05;101099.44;;;14.36;nan
70468;BME280;57934;51.532;7.684;2023-05-24T13:29:31;101098.81;;;14.95;nan
70468;BME280;57934;51.532;7.684;2023-05-24T13:31:57;101097.00;;;15.42;nan
70468;BME280;57934;51.532;7.684;2023-05-24T13:34:24;101098.00;;;15.88;nan
70468;BME280;57934;51.532;7.684;2023-05-24T13:36:51;101097.56;;;15.97;nan
70468;BME280;57934;51.532;7.684;2023-05-24T13:39:17;101098.53;;;16.16;nan
70468;BME280;57934;51.532;7.684;2023-05-24T13:41:44;101097.84;;;16.34;nan
70468;BME280;57934;51.532;7.684;2023-05-24T13:44:11;101101.81;;;16.18;nan